sensor_id;sensor_type;location;lat;lon;timestamp;P1;durP1;ratioP1;P2;durP2;ratioP2
32108;SDS011;18624;50.042;8.436;2023-04-25T00:01:34;2.97;;;2.67;;
32108;SDS011;18624;50.042;8.436;2023-04-25T00:04:02;2.42;;;2.10;;
32108;SDS011;18624;50.042;8.436;2023-04-25T00:06:29;2.35;;;2.15;;
32108;SDS011;18624;50.042;8.436;2023-04-25T00:08:57;3.63;;;2.25;;
32108;SDS011;18624;50.042;8.436;2023-04-25T00:11:24;3.15;;;2.75;;
32108;SDS011;18624;50.042;8.436;2023-04-25T00:13:50;2.80;;;2.50;;
32108;SDS011;18624;50.042;8.436;2023-04-25T00:16:17;3.15;;;2.70;;
32108;SDS011;18624;50.042;8.436;2023-04-25T00:18:43;3.63;;;2.42;;
32108;SDS011;18624;50.042;8.436;2023-04-25T00:21:12;3.38;;;2.75;;
32108;SDS011;18624;50.042;8.436;2023-04-25T00:23:38;3.67;;;2.85;;
32108;SDS011;18624;50.042;8.436;2023-04-25T00:26:05;3.33;;;3.03;;
32108;SDS011;18624;50.042;8.436;2023-04-25T00:28:31;5.70;;;3.25;;
32108;SDS011;18624;50.042;8.436;2023-04-25T00:30:58;3.40;;;3.10;;
32108;SDS011;18624;50.042;8.436;2023-04-25T00:33:24;3.47;;;2.80;;
32108;SDS011;18624;50.042;8.436;2023-04-25T00:35:51;3.80;;;3.03;;
32108;SDS011;18624;50.042;8.436;2023-04-25T00:38:17;4.45;;;2.95;;
32108;SDS011;18624;50.042;8.436;2023-04-25T00:40:43;3.92;;;2.83;;
32108;SDS011;18624;50.042;8.436;2023-04-25T00:43:10;4.28;;;3.58;;
32108;SDS011;18624;50.042;8.436;2023-04-25T00:45:37;3.47;;;3.05;;
32108;SDS011;18624;50.042;8.436;2023-04-25T00:48:05;4.85;;;4.45;;
32108;SDS011;18624;50.042;8.436;2023-04-25T00:50:35;8.70;;;3.83;;
32108;SDS011;18624;50.042;8.436;2023-04-25T00:53:03;4.93;;;3.25;;
32108;SDS011;18624;50.042;8.436;2023-04-25T00:55:29;4.78;;;4.25;;
32108;SDS011;18624;50.042;8.436;2023-04-25T00:57:57;3.67;;;3.38;;
32108;SDS011;18624;50.042;8.436;2023-04-25T01:00:24;4.45;;;3.35;;
32108;SDS011;18624;50.042;8.436;2023-04-25T01:02:50;4.93;;;4.03;;
32108;SDS011;18624;50.042;8.436;2023-04-25T01:05:18;4.55;;;3.58;;
32108;SDS011;18624;50.042;8.436;2023-04-25T01:07:45;4.72;;;4.32;;
32108;SDS011;18624;50.042;8.436;2023-04-25T01:10:11;4.28;;;3.70;;
32108;SDS011;18624;50.042;8.436;2023-04-25T01:12:38;4.07;;;3.67;;
32108;SDS011;18624;50.042;8.436;2023-04-25T01:15:04;4.07;;;3.67;;
32108;SDS011;18624;50.042;8.436;2023-04-25T01:17:31;3.97;;;3.33;;
32108;SDS011;18624;50.042;8.436;2023-04-25T01:20:03;4.35;;;3.85;;
32108;SDS011;18624;50.042;8.436;2023-04-25T01:22:31;5.38;;;4.18;;
32108;SDS011;18624;50.042;8.436;2023-04-25T01:24:58;4.82;;;4.32;;
32108;SDS011;18624;50.042;8.436;2023-04-25T01:27:26;3.92;;;3.42;;
32108;SDS011;18624;50.042;8.436;2023-04-25T01:29:54;4.45;;;3.97;;
32108;SDS011;18624;50.042;8.436;2023-04-25T01:32:23;4.28;;;3.88;;
32108;SDS011;18624;50.042;8.436;2023-04-25T01:34:50;4.97;;;4.47;;
32108;SDS011;18624;50.042;8.436;2023-04-25T01:37:18;4.07;;;3.70;;
32108;SDS011;18624;50.042;8.436;2023-04-25T01:39:44;4.10;;;3.70;;
32108;SDS011;18624;50.042;8.436;2023-04-25T01:42:11;5.90;;;5.10;;
32108;SDS011;18624;50.042;8.436;2023-04-25T01:44:38;6.50;;;5.18;;
32108;SDS011;18624;50.042;8.436;2023-04-25T01:47:05;5.72;;;4.97;;
32108;SDS011;18624;50.042;8.436;2023-04-25T01:49:31;6.18;;;4.88;;
32108;SDS011;18624;50.042;8.436;2023-04-25T01:51:58;5.03;;;4.28;;
32108;SDS011;18624;50.042;8.436;2023-04-25T01:54:25;5.63;;;4.97;;
32108;SDS011;18624;50.042;8.436;2023-04-25T01:56:52;6.05;;;4.43;;
32108;SDS011;18624;50.042;8.436;2023-04-25T01:59:20;4.85;;;4.35;;
32108;SDS011;18624;50.042;8.436;2023-04-25T02:02:07;7.53;;;5.25;;
32108;SDS011;18624;50.042;8.436;2023-04-25T02:04:35;7.13;;;5.82;;
32108;SDS011;18624;50.042;8.436;2023-04-25T02:07:02;6.78;;;5.88;;
32108;SDS011;18624;50.042;8.436;2023-04-25T02:09:47;6.28;;;5.22;;
32108;SDS011;18624;50.042;8.436;2023-04-25T02:12:15;5.50;;;5.00;;
32108;SDS011;18624;50.042;8.436;2023-04-25T02:15:00;6.68;;;6.00;;
32108;SDS011;18624;50.042;8.436;2023-04-25T02:17:38;4.97;;;4.45;;
32108;SDS011;18624;50.042;8.436;2023-04-25T02:20:05;6.32;;;5.70;;
32108;SDS011;18624;50.042;8.436;2023-04-25T02:22:32;5.18;;;4.63;;
32108;SDS011;18624;50.042;8.436;2023-04-25T02:25:00;6.80;;;6.00;;
32108;SDS011;18624;50.042;8.436;2023-04-25T02:27:26;5.60;;;5.00;;
32108;SDS011;18624;50.042;8.436;2023-04-25T02:29:53;5.63;;;5.03;;
32108;SDS011;18624;50.042;8.436;2023-04-25T02:32:19;5.93;;;5.32;;
32108;SDS011;18624;50.042;8.436;2023-04-25T02:34:46;6.20;;;5.07;;
32108;SDS011;18624;50.042;8.436;2023-04-25T02:37:13;6.68;;;5.63;;
32108;SDS011;18624;50.042;8.436;2023-04-25T02:39:40;7.93;;;6.07;;
32108;SDS011;18624;50.042;8.436;2023-04-25T02:42:06;6.60;;;5.95;;
32108;SDS011;18624;50.042;8.436;2023-04-25T02:44:32;6.35;;;5.75;;
32108;SDS011;18624;50.042;8.436;2023-04-25T02:46:59;6.90;;;6.20;;
32108;SDS011;18624;50.042;8.436;2023-04-25T02:49:25;6.22;;;5.63;;
32108;SDS011;18624;50.042;8.436;2023-04-25T02:51:52;6.55;;;5.50;;
32108;SDS011;18624;50.042;8.436;2023-04-25T02:54:19;6.50;;;5.60;;
32108;SDS011;18624;50.042;8.436;2023-04-25T02:56:47;6.78;;;6.10;;
32108;SDS011;18624;50.042;8.436;2023-04-25T02:59:19;6.55;;;5.95;;
32108;SDS011;18624;50.042;8.436;2023-04-25T03:01:45;8.23;;;6.03;;
32108;SDS011;18624;50.042;8.436;2023-04-25T03:04:11;9.80;;;5.75;;
32108;SDS011;18624;50.042;8.436;2023-04-25T03:06:38;7.80;;;5.95;;
32108;SDS011;18624;50.042;8.436;2023-04-25T03:09:04;6.53;;;5.80;;
32108;SDS011;18624;50.042;8.436;2023-04-25T03:11:31;6.93;;;5.80;;
32108;SDS011;18624;50.042;8.436;2023-04-25T03:13:57;6.60;;;4.68;;
32108;SDS011;18624;50.042;8.436;2023-04-25T03:16:24;6.90;;;5.85;;
32108;SDS011;18624;50.042;8.436;2023-04-25T03:18:51;7.90;;;5.93;;
32108;SDS011;18624;50.042;8.436;2023-04-25T03:21:18;7.30;;;5.70;;
32108;SDS011;18624;50.042;8.436;2023-04-25T03:23:44;6.78;;;5.32;;
32108;SDS011;18624;50.042;8.436;2023-04-25T03:26:11;8.07;;;6.35;;
32108;SDS011;18624;50.042;8.436;2023-04-25T03:28:37;11.85;;;7.25;;
32108;SDS011;18624;50.042;8.436;2023-04-25T03:31:05;9.15;;;7.03;;
32108;SDS011;18624;50.042;8.436;2023-04-25T03:33:32;8.73;;;7.25;;
32108;SDS011;18624;50.042;8.436;2023-04-25T03:35:58;10.68;;;7.35;;
32108;SDS011;18624;50.042;8.436;2023-04-25T03:38:26;9.90;;;6.50;;
32108;SDS011;18624;50.042;8.436;2023-04-25T03:40:53;13.50;;;8.80;;
32108;SDS011;18624;50.042;8.436;2023-04-25T03:43:25;10.48;;;6.88;;
32108;SDS011;18624;50.042;8.436;2023-04-25T03:45:57;9.27;;;7.10;;
32108;SDS011;18624;50.042;8.436;2023-04-25T03:48:25;8.18;;;6.15;;
32108;SDS011;18624;50.042;8.436;2023-04-25T03:50:53;9.35;;;8.20;;
32108;SDS011;18624;50.042;8.436;2023-04-25T03:53:20;10.77;;;7.75;;
32108;SDS011;18624;50.042;8.436;2023-04-25T03:56:16;7.57;;;5.95;;
32108;SDS011;18624;50.042;8.436;2023-04-25T03:58:45;10.27;;;6.40;;
32108;SDS011;18624;50.042;8.436;2023-04-25T04:01:13;8.30;;;7.38;;
32108;SDS011;18624;50.042;8.436;2023-04-25T04:03:40;9.48;;;6.80;;
32108;SDS011;18624;50.042;8.436;2023-04-25T04:06:08;13.07;;;7.47;;
32108;SDS011;18624;50.042;8.436;2023-04-25T04:08:38;10.75;;;6.80;;
32108;SDS011;18624;50.042;8.436;2023-04-25T04:11:05;9.93;;;8.23;;
32108;SDS011;18624;50.042;8.436;2023-04-25T04:13:32;10.90;;;7.90;;
32108;SDS011;18624;50.042;8.436;2023-04-25T04:15:59;10.25;;;6.88;;
32108;SDS011;18624;50.042;8.436;2023-04-25T04:18:25;9.02;;;6.55;;
32108;SDS011;18624;50.042;8.436;2023-04-25T04:20:54;10.27;;;7.65;;
32108;SDS011;18624;50.042;8.436;2023-04-25T04:23:21;10.25;;;7.50;;
32108;SDS011;18624;50.042;8.436;2023-04-25T04:25:50;13.43;;;7.53;;
32108;SDS011;18624;50.042;8.436;2023-04-25T04:28:26;8.30;;;5.88;;
32108;SDS011;18624;50.042;8.436;2023-04-25T04:31:00;11.15;;;5.25;;
32108;SDS011;18624;50.042;8.436;2023-04-25T04:33:27;12.38;;;6.63;;
32108;SDS011;18624;50.042;8.436;2023-04-25T04:35:57;11.98;;;5.82;;
32108;SDS011;18624;50.042;8.436;2023-04-25T04:38:24;9.60;;;5.22;;
32108;SDS011;18624;50.042;8.436;2023-04-25T04:40:54;7.35;;;4.90;;
32108;SDS011;18624;50.042;8.436;2023-04-25T04:43:31;10.73;;;6.47;;
32108;SDS011;18624;50.042;8.436;2023-04-25T04:46:18;8.77;;;5.85;;
32108;SDS011;18624;50.042;8.436;2023-04-25T04:49:00;9.90;;;6.63;;
32108;SDS011;18624;50.042;8.436;2023-04-25T04:51:53;11.00;;;6.50;;
32108;SDS011;18624;50.042;8.436;2023-04-25T04:54:41;11.93;;;6.53;;
32108;SDS011;18624;50.042;8.436;2023-04-25T04:57:20;10.25;;;6.80;;
32108;SDS011;18624;50.042;8.436;2023-04-25T05:00:21;10.23;;;7.32;;
32108;SDS011;18624;50.042;8.436;2023-04-25T05:02:53;9.45;;;6.78;;
32108;SDS011;18624;50.042;8.436;2023-04-25T05:05:33;9.10;;;6.53;;
32108;SDS011;18624;50.042;8.436;2023-04-25T05:08:14;19.20;;;8.25;;
32108;SDS011;18624;50.042;8.436;2023-04-25T05:10:53;11.27;;;7.18;;
32108;SDS011;18624;50.042;8.436;2023-04-25T05:13:34;18.00;;;8.02;;
32108;SDS011;18624;50.042;8.436;2023-04-25T05:16:19;13.50;;;6.95;;
32108;SDS011;18624;50.042;8.436;2023-04-25T05:19:07;12.02;;;7.10;;
32108;SDS011;18624;50.042;8.436;2023-04-25T05:21:45;17.80;;;8.70;;
32108;SDS011;18624;50.042;8.436;2023-04-25T05:24:30;14.32;;;7.43;;
32108;SDS011;18624;50.042;8.436;2023-04-25T05:27:32;13.30;;;7.80;;
32108;SDS011;18624;50.042;8.436;2023-04-25T05:30:13;9.80;;;7.20;;
32108;SDS011;18624;50.042;8.436;2023-04-25T05:32:56;12.63;;;7.05;;
32108;SDS011;18624;50.042;8.436;2023-04-25T05:35:23;12.57;;;8.13;;
32108;SDS011;18624;50.042;8.436;2023-04-25T05:37:50;10.65;;;6.70;;
32108;SDS011;18624;50.042;8.436;2023-04-25T05:40:18;13.38;;;6.55;;
32108;SDS011;18624;50.042;8.436;2023-04-25T05:43:13;15.45;;;8.02;;
32108;SDS011;18624;50.042;8.436;2023-04-25T05:45:54;11.40;;;6.35;;
32108;SDS011;18624;50.042;8.436;2023-04-25T05:48:40;8.23;;;5.55;;
32108;SDS011;18624;50.042;8.436;2023-04-25T05:51:30;10.45;;;6.70;;
32108;SDS011;18624;50.042;8.436;2023-04-25T05:54:25;10.05;;;6.95;;
32108;SDS011;18624;50.042;8.436;2023-04-25T05:56:53;7.38;;;5.57;;
32108;SDS011;18624;50.042;8.436;2023-04-25T05:59:19;11.63;;;5.88;;
32108;SDS011;18624;50.042;8.436;2023-04-25T06:01:46;7.65;;;5.95;;
32108;SDS011;18624;50.042;8.436;2023-04-25T06:04:13;8.85;;;5.90;;
32108;SDS011;18624;50.042;8.436;2023-04-25T06:06:40;9.38;;;5.60;;
32108;SDS011;18624;50.042;8.436;2023-04-25T06:09:06;10.93;;;6.30;;
32108;SDS011;18624;50.042;8.436;2023-04-25T06:11:33;8.77;;;5.18;;
32108;SDS011;18624;50.042;8.436;2023-04-25T06:14:00;11.25;;;6.43;;
32108;SDS011;18624;50.042;8.436;2023-04-25T06:16:27;7.68;;;5.55;;
32108;SDS011;18624;50.042;8.436;2023-04-25T06:18:53;11.95;;;6.03;;
32108;SDS011;18624;50.042;8.436;2023-04-25T06:21:20;7.40;;;5.25;;
32108;SDS011;18624;50.042;8.436;2023-04-25T06:23:49;8.88;;;5.43;;
32108;SDS011;18624;50.042;8.436;2023-04-25T06:26:20;10.35;;;6.10;;
32108;SDS011;18624;50.042;8.436;2023-04-25T06:28:47;10.13;;;6.32;;
32108;SDS011;18624;50.042;8.436;2023-04-25T06:31:14;8.90;;;5.90;;
32108;SDS011;18624;50.042;8.436;2023-04-25T06:33:42;8.98;;;5.55;;
32108;SDS011;18624;50.042;8.436;2023-04-25T06:36:08;9.40;;;5.15;;
32108;SDS011;18624;50.042;8.436;2023-04-25T06:38:37;9.88;;;5.90;;
32108;SDS011;18624;50.042;8.436;2023-04-25T06:41:04;7.70;;;4.22;;
32108;SDS011;18624;50.042;8.436;2023-04-25T06:43:34;11.82;;;5.55;;
32108;SDS011;18624;50.042;8.436;2023-04-25T06:46:18;8.50;;;4.88;;
32108;SDS011;18624;50.042;8.436;2023-04-25T06:48:47;6.53;;;4.38;;
32108;SDS011;18624;50.042;8.436;2023-04-25T06:51:15;8.98;;;5.43;;
32108;SDS011;18624;50.042;8.436;2023-04-25T06:53:43;9.30;;;5.28;;
32108;SDS011;18624;50.042;8.436;2023-04-25T06:56:20;9.52;;;5.80;;
32108;SDS011;18624;50.042;8.436;2023-04-25T06:59:06;9.18;;;5.40;;
32108;SDS011;18624;50.042;8.436;2023-04-25T07:01:35;8.85;;;5.85;;
32108;SDS011;18624;50.042;8.436;2023-04-25T07:04:05;13.10;;;5.57;;
32108;SDS011;18624;50.042;8.436;2023-04-25T07:06:34;7.43;;;5.53;;
32108;SDS011;18624;50.042;8.436;2023-04-25T07:09:04;8.60;;;4.90;;
32108;SDS011;18624;50.042;8.436;2023-04-25T07:11:31;7.10;;;4.82;;
32108;SDS011;18624;50.042;8.436;2023-04-25T07:13:58;8.20;;;5.05;;
32108;SDS011;18624;50.042;8.436;2023-04-25T07:16:24;12.30;;;5.80;;
32108;SDS011;18624;50.042;8.436;2023-04-25T07:18:51;10.18;;;5.60;;
32108;SDS011;18624;50.042;8.436;2023-04-25T07:21:18;8.13;;;5.15;;
32108;SDS011;18624;50.042;8.436;2023-04-25T07:23:46;12.52;;;6.00;;
32108;SDS011;18624;50.042;8.436;2023-04-25T07:26:17;11.60;;;6.68;;
32108;SDS011;18624;50.042;8.436;2023-04-25T07:29:09;6.05;;;4.40;;
32108;SDS011;18624;50.042;8.436;2023-04-25T07:31:36;9.32;;;5.32;;
32108;SDS011;18624;50.042;8.436;2023-04-25T07:34:02;12.98;;;5.80;;
32108;SDS011;18624;50.042;8.436;2023-04-25T07:36:29;10.48;;;6.03;;
32108;SDS011;18624;50.042;8.436;2023-04-25T07:38:57;8.23;;;4.95;;
32108;SDS011;18624;50.042;8.436;2023-04-25T07:41:23;9.55;;;4.85;;
32108;SDS011;18624;50.042;8.436;2023-04-25T07:43:50;9.75;;;6.50;;
32108;SDS011;18624;50.042;8.436;2023-04-25T07:46:17;8.95;;;5.28;;
32108;SDS011;18624;50.042;8.436;2023-04-25T07:48:44;8.60;;;5.28;;
32108;SDS011;18624;50.042;8.436;2023-04-25T07:51:10;6.70;;;5.05;;
32108;SDS011;18624;50.042;8.436;2023-04-25T07:53:38;10.57;;;5.90;;
32108;SDS011;18624;50.042;8.436;2023-04-25T07:56:09;12.60;;;5.13;;
32108;SDS011;18624;50.042;8.436;2023-04-25T07:58:38;9.63;;;4.47;;
32108;SDS011;18624;50.042;8.436;2023-04-25T08:01:08;6.05;;;4.03;;
32108;SDS011;18624;50.042;8.436;2023-04-25T08:03:48;5.63;;;3.00;;
32108;SDS011;18624;50.042;8.436;2023-04-25T08:06:38;4.25;;;3.30;;
32108;SDS011;18624;50.042;8.436;2023-04-25T08:09:13;9.27;;;3.58;;
32108;SDS011;18624;50.042;8.436;2023-04-25T08:11:41;5.45;;;4.00;;
32108;SDS011;18624;50.042;8.436;2023-04-25T08:14:10;5.18;;;4.50;;
32108;SDS011;18624;50.042;8.436;2023-04-25T08:16:38;9.45;;;4.10;;
32108;SDS011;18624;50.042;8.436;2023-04-25T08:19:06;4.95;;;2.75;;
32108;SDS011;18624;50.042;8.436;2023-04-25T08:21:33;5.68;;;3.78;;
32108;SDS011;18624;50.042;8.436;2023-04-25T08:24:03;6.25;;;3.88;;
32108;SDS011;18624;50.042;8.436;2023-04-25T08:26:33;6.70;;;3.45;;
32108;SDS011;18624;50.042;8.436;2023-04-25T08:29:01;6.50;;;2.58;;
32108;SDS011;18624;50.042;8.436;2023-04-25T08:31:27;5.68;;;3.25;;
32108;SDS011;18624;50.042;8.436;2023-04-25T08:33:57;9.07;;;3.97;;
32108;SDS011;18624;50.042;8.436;2023-04-25T08:36:33;6.30;;;4.30;;
32108;SDS011;18624;50.042;8.436;2023-04-25T08:39:22;5.80;;;3.05;;
32108;SDS011;18624;50.042;8.436;2023-04-25T08:42:09;4.78;;;3.75;;
32108;SDS011;18624;50.042;8.436;2023-04-25T08:44:37;14.30;;;8.80;;
32108;SDS011;18624;50.042;8.436;2023-04-25T08:47:04;5.57;;;3.78;;
32108;SDS011;18624;50.042;8.436;2023-04-25T08:49:38;8.73;;;5.35;;
32108;SDS011;18624;50.042;8.436;2023-04-25T08:52:08;11.63;;;7.35;;
32108;SDS011;18624;50.042;8.436;2023-04-25T08:54:37;10.35;;;6.85;;
32108;SDS011;18624;50.042;8.436;2023-04-25T08:57:07;7.43;;;4.05;;
32108;SDS011;18624;50.042;8.436;2023-04-25T08:59:34;7.78;;;4.10;;
32108;SDS011;18624;50.042;8.436;2023-04-25T09:02:05;4.85;;;3.50;;
32108;SDS011;18624;50.042;8.436;2023-04-25T09:04:32;7.53;;;4.80;;
32108;SDS011;18624;50.042;8.436;2023-04-25T09:06:58;9.20;;;5.43;;
32108;SDS011;18624;50.042;8.436;2023-04-25T09:09:26;6.65;;;3.50;;
32108;SDS011;18624;50.042;8.436;2023-04-25T09:11:52;7.45;;;5.15;;
32108;SDS011;18624;50.042;8.436;2023-04-25T09:14:21;7.55;;;4.85;;
32108;SDS011;18624;50.042;8.436;2023-04-25T09:17:09;14.50;;;7.80;;
32108;SDS011;18624;50.042;8.436;2023-04-25T09:19:38;7.43;;;4.63;;
32108;SDS011;18624;50.042;8.436;2023-04-25T09:22:16;7.13;;;5.20;;
32108;SDS011;18624;50.042;8.436;2023-04-25T09:24:44;4.90;;;4.03;;
32108;SDS011;18624;50.042;8.436;2023-04-25T09:27:19;13.68;;;6.15;;
32108;SDS011;18624;50.042;8.436;2023-04-25T09:29:59;6.63;;;4.75;;
32108;SDS011;18624;50.042;8.436;2023-04-25T09:32:45;8.32;;;4.78;;
32108;SDS011;18624;50.042;8.436;2023-04-25T09:35:12;6.90;;;4.43;;
32108;SDS011;18624;50.042;8.436;2023-04-25T09:37:50;8.18;;;4.78;;
32108;SDS011;18624;50.042;8.436;2023-04-25T09:40:43;9.23;;;4.95;;
32108;SDS011;18624;50.042;8.436;2023-04-25T09:43:23;5.70;;;3.80;;
32108;SDS011;18624;50.042;8.436;2023-04-25T09:45:53;6.57;;;4.67;;
32108;SDS011;18624;50.042;8.436;2023-04-25T09:48:26;8.75;;;4.43;;
32108;SDS011;18624;50.042;8.436;2023-04-25T09:53:37;7.18;;;4.05;;
32108;SDS011;18624;50.042;8.436;2023-04-25T09:56:12;5.07;;;3.85;;
32108;SDS011;18624;50.042;8.436;2023-04-25T09:58:40;7.65;;;4.90;;
32108;SDS011;18624;50.042;8.436;2023-04-25T10:01:08;8.10;;;5.28;;
32108;SDS011;18624;50.042;8.436;2023-04-25T10:03:47;8.95;;;5.20;;
32108;SDS011;18624;50.042;8.436;2023-04-25T10:06:29;7.07;;;4.63;;
32108;SDS011;18624;50.042;8.436;2023-04-25T10:08:57;6.50;;;4.45;;
32108;SDS011;18624;50.042;8.436;2023-04-25T10:11:24;7.80;;;5.47;;
32108;SDS011;18624;50.042;8.436;2023-04-25T10:13:52;11.15;;;5.20;;
32108;SDS011;18624;50.042;8.436;2023-04-25T10:16:18;11.07;;;4.13;;
32108;SDS011;18624;50.042;8.436;2023-04-25T10:18:46;6.22;;;4.28;;
32108;SDS011;18624;50.042;8.436;2023-04-25T10:21:12;8.32;;;4.20;;
32108;SDS011;18624;50.042;8.436;2023-04-25T10:23:41;9.07;;;4.10;;
32108;SDS011;18624;50.042;8.436;2023-04-25T10:26:08;5.75;;;3.53;;
32108;SDS011;18624;50.042;8.436;2023-04-25T10:28:58;5.93;;;3.60;;
32108;SDS011;18624;50.042;8.436;2023-04-25T10:31:26;8.35;;;6.10;;
32108;SDS011;18624;50.042;8.436;2023-04-25T10:33:53;7.38;;;3.67;;
32108;SDS011;18624;50.042;8.436;2023-04-25T10:36:20;10.60;;;4.25;;
32108;SDS011;18624;50.042;8.436;2023-04-25T10:38:49;5.80;;;4.13;;
32108;SDS011;18624;50.042;8.436;2023-04-25T10:41:17;8.48;;;4.00;;
32108;SDS011;18624;50.042;8.436;2023-04-25T10:43:47;6.45;;;3.60;;
32108;SDS011;18624;50.042;8.436;2023-04-25T10:48:46;7.43;;;4.32;;
32108;SDS011;18624;50.042;8.436;2023-04-25T10:54:07;9.88;;;4.47;;
32108;SDS011;18624;50.042;8.436;2023-04-25T10:56:41;7.85;;;4.72;;
32108;SDS011;18624;50.042;8.436;2023-04-25T10:59:14;5.60;;;3.65;;
32108;SDS011;18624;50.042;8.436;2023-04-25T11:01:43;7.68;;;4.80;;
32108;SDS011;18624;50.042;8.436;2023-04-25T11:04:28;6.82;;;4.05;;
32108;SDS011;18624;50.042;8.436;2023-04-25T11:07:00;11.45;;;5.97;;
32108;SDS011;18624;50.042;8.436;2023-04-25T11:09:46;10.40;;;4.55;;
32108;SDS011;18624;50.042;8.436;2023-04-25T11:12:12;13.52;;;6.15;;
32108;SDS011;18624;50.042;8.436;2023-04-25T11:14:40;10.15;;;5.18;;
32108;SDS011;18624;50.042;8.436;2023-04-25T11:17:11;8.35;;;3.50;;
32108;SDS011;18624;50.042;8.436;2023-04-25T11:19:38;8.95;;;4.43;;
32108;SDS011;18624;50.042;8.436;2023-04-25T11:22:04;6.28;;;3.80;;
32108;SDS011;18624;50.042;8.436;2023-04-25T11:24:33;8.07;;;4.50;;
32108;SDS011;18624;50.042;8.436;2023-04-25T11:27:01;8.20;;;4.40;;
32108;SDS011;18624;50.042;8.436;2023-04-25T11:29:29;8.10;;;5.20;;
32108;SDS011;18624;50.042;8.436;2023-04-25T11:31:56;5.65;;;4.18;;
32108;SDS011;18624;50.042;8.436;2023-04-25T11:34:27;8.35;;;4.38;;
32108;SDS011;18624;50.042;8.436;2023-04-25T11:36:56;8.82;;;3.90;;
32108;SDS011;18624;50.042;8.436;2023-04-25T11:39:23;8.90;;;4.32;;
32108;SDS011;18624;50.042;8.436;2023-04-25T11:41:51;8.70;;;4.50;;
32108;SDS011;18624;50.042;8.436;2023-04-25T11:44:19;7.43;;;3.95;;
32108;SDS011;18624;50.042;8.436;2023-04-25T11:46:46;9.63;;;4.82;;
32108;SDS011;18624;50.042;8.436;2023-04-25T11:49:15;9.02;;;4.07;;
32108;SDS011;18624;50.042;8.436;2023-04-25T11:51:45;10.40;;;4.53;;
32108;SDS011;18624;50.042;8.436;2023-04-25T11:54:13;10.00;;;4.45;;
32108;SDS011;18624;50.042;8.436;2023-04-25T11:56:46;5.28;;;3.75;;
32108;SDS011;18624;50.042;8.436;2023-04-25T11:59:13;4.03;;;2.97;;
32108;SDS011;18624;50.042;8.436;2023-04-25T12:01:47;7.00;;;3.80;;
32108;SDS011;18624;50.042;8.436;2023-04-25T12:06:44;6.85;;;3.67;;
32108;SDS011;18624;50.042;8.436;2023-04-25T12:09:14;5.18;;;3.22;;
32108;SDS011;18624;50.042;8.436;2023-04-25T12:11:44;6.82;;;4.45;;
32108;SDS011;18624;50.042;8.436;2023-04-25T12:14:12;4.95;;;3.30;;
32108;SDS011;18624;50.042;8.436;2023-04-25T12:16:46;9.55;;;4.07;;
32108;SDS011;18624;50.042;8.436;2023-04-25T12:19:17;8.00;;;4.03;;
32108;SDS011;18624;50.042;8.436;2023-04-25T12:21:45;5.40;;;3.20;;
32108;SDS011;18624;50.042;8.436;2023-04-25T12:24:24;7.65;;;3.38;;
32108;SDS011;18624;50.042;8.436;2023-04-25T12:29:25;3.95;;;3.63;;
32108;SDS011;18624;50.042;8.436;2023-04-25T12:32:03;6.85;;;3.28;;
32108;SDS011;18624;50.042;8.436;2023-04-25T12:34:31;6.80;;;3.00;;
32108;SDS011;18624;50.042;8.436;2023-04-25T12:36:58;7.03;;;4.50;;
32108;SDS011;18624;50.042;8.436;2023-04-25T12:39:24;5.15;;;3.22;;
32108;SDS011;18624;50.042;8.436;2023-04-25T12:41:51;3.63;;;3.13;;
32108;SDS011;18624;50.042;8.436;2023-04-25T12:44:20;9.30;;;3.65;;
32108;SDS011;18624;50.042;8.436;2023-04-25T12:46:47;7.07;;;3.08;;
32108;SDS011;18624;50.042;8.436;2023-04-25T12:49:14;7.75;;;4.70;;
32108;SDS011;18624;50.042;8.436;2023-04-25T12:51:44;8.02;;;3.70;;
32108;SDS011;18624;50.042;8.436;2023-04-25T12:54:11;11.68;;;5.75;;
32108;SDS011;18624;50.042;8.436;2023-04-25T12:56:37;7.53;;;3.17;;
32108;SDS011;18624;50.042;8.436;2023-04-25T12:59:04;5.50;;;3.53;;
32108;SDS011;18624;50.042;8.436;2023-04-25T13:01:30;5.65;;;3.25;;
32108;SDS011;18624;50.042;8.436;2023-04-25T13:04:01;6.05;;;2.88;;
32108;SDS011;18624;50.042;8.436;2023-04-25T13:06:27;7.25;;;2.70;;
32108;SDS011;18624;50.042;8.436;2023-04-25T13:08:56;4.57;;;2.88;;
32108;SDS011;18624;50.042;8.436;2023-04-25T13:11:22;4.43;;;3.38;;
32108;SDS011;18624;50.042;8.436;2023-04-25T13:13:48;4.63;;;2.90;;
32108;SDS011;18624;50.042;8.436;2023-04-25T13:16:15;3.72;;;2.40;;
32108;SDS011;18624;50.042;8.436;2023-04-25T13:18:42;6.53;;;3.15;;
32108;SDS011;18624;50.042;8.436;2023-04-25T13:21:11;5.65;;;3.25;;
32108;SDS011;18624;50.042;8.436;2023-04-25T13:23:38;6.28;;;3.47;;
32108;SDS011;18624;50.042;8.436;2023-04-25T13:26:05;6.32;;;3.80;;
32108;SDS011;18624;50.042;8.436;2023-04-25T13:28:31;7.63;;;4.15;;
32108;SDS011;18624;50.042;8.436;2023-04-25T13:30:57;3.83;;;3.40;;
32108;SDS011;18624;50.042;8.436;2023-04-25T13:33:24;5.03;;;3.28;;
32108;SDS011;18624;50.042;8.436;2023-04-25T13:35:52;4.65;;;2.95;;
32108;SDS011;18624;50.042;8.436;2023-04-25T13:38:23;4.60;;;2.92;;
32108;SDS011;18624;50.042;8.436;2023-04-25T13:40:50;6.57;;;3.22;;
32108;SDS011;18624;50.042;8.436;2023-04-25T13:43:21;5.82;;;3.10;;
32108;SDS011;18624;50.042;8.436;2023-04-25T13:45:48;7.05;;;3.63;;
32108;SDS011;18624;50.042;8.436;2023-04-25T13:48:16;6.15;;;4.30;;
32108;SDS011;18624;50.042;8.436;2023-04-25T13:50:42;5.80;;;3.65;;
32108;SDS011;18624;50.042;8.436;2023-04-25T13:53:09;5.57;;;3.55;;
32108;SDS011;18624;50.042;8.436;2023-04-25T13:55:35;6.72;;;3.63;;
32108;SDS011;18624;50.042;8.436;2023-04-25T13:58:05;6.00;;;3.78;;
32108;SDS011;18624;50.042;8.436;2023-04-25T14:00:35;5.68;;;3.20;;
32108;SDS011;18624;50.042;8.436;2023-04-25T14:03:05;12.05;;;4.30;;
32108;SDS011;18624;50.042;8.436;2023-04-25T14:05:34;4.03;;;3.47;;
32108;SDS011;18624;50.042;8.436;2023-04-25T14:08:05;5.10;;;3.22;;
32108;SDS011;18624;50.042;8.436;2023-04-25T14:10:33;5.72;;;3.88;;
32108;SDS011;18624;50.042;8.436;2023-04-25T14:13:00;7.30;;;4.53;;
32108;SDS011;18624;50.042;8.436;2023-04-25T14:15:27;5.95;;;3.55;;
32108;SDS011;18624;50.042;8.436;2023-04-25T14:17:54;9.20;;;3.80;;
32108;SDS011;18624;50.042;8.436;2023-04-25T14:20:20;5.80;;;3.70;;
32108;SDS011;18624;50.042;8.436;2023-04-25T14:22:47;5.22;;;3.20;;
32108;SDS011;18624;50.042;8.436;2023-04-25T14:25:13;4.68;;;3.00;;
32108;SDS011;18624;50.042;8.436;2023-04-25T14:27:40;6.97;;;2.83;;
32108;SDS011;18624;50.042;8.436;2023-04-25T14:30:06;3.70;;;2.60;;
32108;SDS011;18624;50.042;8.436;2023-04-25T14:32:35;4.93;;;3.50;;
32108;SDS011;18624;50.042;8.436;2023-04-25T14:35:01;7.50;;;3.22;;
32108;SDS011;18624;50.042;8.436;2023-04-25T14:37:28;12.98;;;5.30;;
32108;SDS011;18624;50.042;8.436;2023-04-25T14:39:54;4.50;;;2.38;;
32108;SDS011;18624;50.042;8.436;2023-04-25T14:42:21;5.40;;;2.70;;
32108;SDS011;18624;50.042;8.436;2023-04-25T14:44:47;4.55;;;2.72;;
32108;SDS011;18624;50.042;8.436;2023-04-25T14:47:13;2.97;;;2.45;;
32108;SDS011;18624;50.042;8.436;2023-04-25T14:49:41;8.48;;;2.25;;
32108;SDS011;18624;50.042;8.436;2023-04-25T14:52:08;8.00;;;2.40;;
32108;SDS011;18624;50.042;8.436;2023-04-25T14:54:34;4.57;;;3.17;;
32108;SDS011;18624;50.042;8.436;2023-04-25T14:57:00;6.90;;;2.45;;
32108;SDS011;18624;50.042;8.436;2023-04-25T14:59:27;6.18;;;2.47;;
32108;SDS011;18624;50.042;8.436;2023-04-25T15:01:54;5.32;;;2.45;;
32108;SDS011;18624;50.042;8.436;2023-04-25T15:04:24;5.10;;;2.60;;
32108;SDS011;18624;50.042;8.436;2023-04-25T15:06:50;6.82;;;2.70;;
32108;SDS011;18624;50.042;8.436;2023-04-25T15:09:17;3.60;;;3.05;;
32108;SDS011;18624;50.042;8.436;2023-04-25T15:11:44;5.32;;;2.70;;
32108;SDS011;18624;50.042;8.436;2023-04-25T15:14:11;5.28;;;2.80;;
32108;SDS011;18624;50.042;8.436;2023-04-25T15:16:37;5.95;;;2.90;;